Flight Track Log - Related Links

Times and Time Zones

All times are in EDT time to prevent confusion due to time zone crossing. See the N934DL flight status page for this flight to view local times or setup timezone preferences in your user account.

Time Position Orientation Groundspeed Altitude Reporting Facility
EDT Latitude Longitude Course Direction KTS MPH feet Rate Location/Type
Sun 02:49:11 PM 27.3833 -82.5500 North 156 180 800  Level Tampa TRACON
Sun 02:49:53 PM 27.3667 -82.5167 119° Southeast 193 222 1,700 1,941 Climbing Tampa TRACON
Sun 02:50:53 PM 27.3000 -82.4833 156° South 256 295 4,100 2,819 Climbing Tampa TRACON
Sun 02:52:00 PM 27.6903 -82.7833 North  Level FlightAware Approximate
Sun 02:52:39 PM 27.2956 -82.5842 267° West 142 163 9,500  Level Miami Center
Sun 02:53:00 PM 27.8064 -82.7833 North  Level FlightAware Approximate
Sun 02:53:39 PM 27.3556 -82.6550 314° West 208 239 11,100  Level Miami Center
Sun 02:54:00 PM 27.9225 -82.7833 North  Level FlightAware Approximate
Sun 02:54:39 PM 27.4250 -82.7403 313° West 326 375 12,700  Level Miami Center
Sun 02:55:39 PM 27.5208 -82.7944 333° Northwest 362 417 15,300 2,161 Climbing Miami Center
Sun 02:57:20 PM 27.7117 -82.7872 North 434 499 18,500 1,975 Climbing Jacksonville Center
Sun 02:58:20 PM 27.8369 -82.7869 360° North 434 499 20,600 1,900 Climbing Jacksonville Center
Sun 02:59:20 PM 27.9664 -82.7869 360° North 442 509 22,300 1,850 Climbing Jacksonville Center
Sun 03:00:20 PM 28.0956 -82.7867 360° North 456 525 24,300 2,000 Climbing Jacksonville Center
Sun 03:01:20 PM 28.2375 -82.7867 360° North 456 525 26,300 1,785 Climbing Jacksonville Center
Sun 03:02:21 PM 28.3711 -82.7864 360° North 456 525 27,900 1,785 Climbing Jacksonville Center
Sun 03:03:21 PM 28.4900 -82.8100 350° North 456 525 29,900 1,059 Climbing Jacksonville Center
Sun 03:04:20 PM 28.6047 -82.8525 342° North 436 502 30,000 706 Climbing Jacksonville Center
Sun 03:05:20 PM 28.7217 -82.8808 348° North 431 496 31,300 1,240 Climbing Jacksonville Center
Sun 03:06:21 PM 28.8406 -82.9044 350° North 431 496 32,500 1,100 Climbing Jacksonville Center
Sun 03:07:20 PM 28.9575 -82.9281 350° North 431 496 33,500 756 Climbing Jacksonville Center
Sun 03:08:20 PM 29.0619 -82.9828 335° Northwest 419 482 34,000 248 Climbing Jacksonville Center
Sun 03:09:21 PM 29.1619 -83.0494 330° Northwest 409 471 34,000  Level Jacksonville Center
Sun 03:10:20 PM 29.2642 -83.1139 331° Northwest 409 471 34,000  Level Jacksonville Center
Sun 03:11:20 PM 29.3622 -83.1761 331° Northwest 414 476 34,000  Level Jacksonville Center
Sun 03:12:20 PM 29.4622 -83.2383 332° Northwest 409 471 34,000  Level Jacksonville Center
Sun 03:13:20 PM 29.5622 -83.3033 331° Northwest 409 471 34,000  Level Jacksonville Center
Sun 03:14:20 PM 29.6644 -83.3683 331° Northwest 409 471 34,000  Level Jacksonville Center
Sun 03:15:20 PM 29.7664 -83.4308 332° Northwest 409 471 34,000  Level Jacksonville Center
Sun 03:16:20 PM 29.8664 -83.4939 331° Northwest 409 471 34,000  Level Jacksonville Center
Sun 03:17:20 PM 29.9642 -83.5544 332° Northwest 409 471 34,000  Level Jacksonville Center
Sun 03:18:21 PM 30.0619 -83.6175 331° Northwest 409 471 34,000  Level Jacksonville Center
Sun 03:19:20 PM 30.1617 -83.6831 330° Northwest 409 471 34,000  Level Jacksonville Center
Sun 03:20:20 PM 30.2617 -83.7464 331° Northwest 404 465 34,000  Level Jacksonville Center
Sun 03:21:20 PM 30.3614 -83.8075 332° Northwest 404 465 34,000  Level Jacksonville Center
Sun 03:22:20 PM 30.4611 -83.8733 330° Northwest 404 465 34,000  Level Jacksonville Center
Sun 03:23:20 PM 30.5628 -83.9492 327° Northwest 409 471 34,000  Level Jacksonville Center
Sun 03:24:20 PM 30.6583 -84.0058 333° Northwest 402 463 34,000  Level Jacksonville Center
Sun 03:25:20 PM 30.7600 -84.0722 331° Northwest 402 463 34,000  Level Jacksonville Center
Sun 03:26:20 PM 30.8597 -84.1364 331° Northwest 402 463 34,000  Level Jacksonville Center
Sun 03:27:20 PM 30.9550 -84.2008 330° Northwest 402 463 34,000  Level Jacksonville Center
Sun 03:28:20 PM 31.0547 -84.2675 330° Northwest 402 463 34,000  Level Jacksonville Center
Sun 03:29:20 PM 31.1519 -84.3322 330° Northwest 402 463 34,000  Level Jacksonville Center
Sun 03:30:53 PM 31.2953 -84.4253 331° Northwest 405 466 34,000  Level Atlanta Center
Sun 03:31:52 PM 31.3931 -84.4914 330° Northwest 405 466 34,000  Level Atlanta Center
Sun 03:32:53 PM 31.4931 -84.5575 331° Northwest 405 466 34,000 -149 Level Atlanta Center
Sun 03:33:53 PM 31.5928 -84.6239 330° Northwest 405 466 33,700 -1,150 Descending Atlanta Center
Sun 03:34:53 PM 31.6947 -84.6881 332° Northwest 411 473 31,700 -1,966 Descending Atlanta Center
Sun 03:35:52 PM 31.8178 -84.7256 345° North 419 482 29,800 -1,966 Descending Atlanta Center
Sun 03:36:52 PM 31.9533 -84.7586 348° North 439 505 27,800 -1,500 Descending Atlanta Center
Sun 03:37:52 PM 32.0783 -84.7839 350° North 455 524 26,800 -1,350 Descending Atlanta Center
Sun 03:38:52 PM 32.2056 -84.8122 349° North 455 524 25,100 -1,388 Descending Atlanta Center
Sun 03:39:53 PM 32.3200 -84.8328 351° North 455 524 24,000 -550 Descending Atlanta Center
Sun 03:40:52 PM 32.4411 -84.8608 349° North 449 517 24,000 -252 Level Atlanta Center
Sun 03:41:52 PM 32.5661 -84.8892 349° North 449 517 23,500 -1,500 Descending Atlanta Center
Sun 03:42:52 PM 32.6828 -84.9175 348° North 438 504 21,000 -2,450 Descending Atlanta Center
Sun 03:43:52 PM 32.8014 -84.9483 348° North 433 498 18,600 -2,380 Descending Atlanta Center
Sun 03:44:53 PM 32.9119 -84.9717 350° North 411 473 16,200 -2,380 Descending Atlanta Center
Sun 03:45:53 PM 33.0225 -84.9953 350° North 405 466 13,800 -2,100 Descending Atlanta Center
Sun 03:46:53 PM 33.1269 -84.9864 North 374 430 12,000 -1,500 Descending Atlanta Center
Sun 03:47:53 PM 33.2128 -84.9253 31° Northeast 358 412 10,800 -1,000 Descending Atlanta Center
Sun 03:48:53 PM 33.3053 -84.8639 29° Northeast 353 406 10,000 -952 Descending Atlanta Center
Sun 03:49:59 PM 33.3833 -84.8333 18° North 290 334 8,800 -952 Descending Atlanta TRACON
Sun 03:50:59 PM 33.4500 -84.7833 32° Northeast 255 293 8,000 -800 Descending Atlanta TRACON
Sun 03:51:59 PM 33.5000 -84.7333 40° Northeast 206 237 7,200 -1,000 Descending Atlanta TRACON
Sun 03:52:59 PM 33.5500 -84.7000 29° Northeast 188 216 6,000 -1,100 Descending Atlanta TRACON
Sun 03:53:59 PM 33.5833 -84.6667 40° Northeast 174 200 5,000 -600 Descending Atlanta TRACON
Sun 03:54:59 PM 33.6167 -84.6333 40° Northeast 164 189 4,800 -800 Descending Atlanta TRACON
Sun 03:55:59 PM 33.6333 -84.5833 68° East 160 184 3,400 -1,400 Descending Atlanta TRACON

Login

Don't have an account? Register now (free) for customized features, flight alerts, and more!